createdAt,value
2017-06-08T00:01:12.773Z,76.40
2017-06-08T00:03:40.126Z,76.80
2017-06-08T00:06:07.076Z,76.80
2017-06-08T00:08:34.430Z,76.40
2017-06-08T00:11:01.377Z,76.40
2017-06-08T00:13:28.321Z,76.70
2017-06-08T00:15:55.270Z,76.90
2017-06-08T00:18:22.153Z,76.80
2017-06-08T00:20:49.065Z,76.90
2017-06-08T00:23:16.342Z,77.30
2017-06-08T00:25:43.253Z,77.30
2017-06-08T00:28:10.204Z,77.30
2017-06-08T00:30:37.154Z,77.50
2017-06-08T00:33:04.506Z,77.70
2017-06-08T00:35:31.454Z,77.70
2017-06-08T00:37:58.393Z,77.70
2017-06-08T00:40:25.282Z,77.10
2017-06-08T00:42:52.222Z,77.40
2017-06-08T00:45:19.134Z,77.60
2017-06-08T00:47:46.017Z,78.10
2017-06-08T00:50:13.029Z,77.80
2017-06-08T00:52:39.978Z,77.80
2017-06-08T00:55:06.859Z,77.80
2017-06-08T00:57:33.866Z,77.80
2017-06-08T01:00:00.761Z,77.80
2017-06-08T01:02:27.641Z,78.10
2017-06-08T01:04:54.601Z,78.00
2017-06-08T01:07:21.554Z,77.90
2017-06-08T01:09:48.438Z,77.30
2017-06-08T01:12:15.354Z,77.50
2017-06-08T01:14:42.238Z,77.70
2017-06-08T01:17:09.130Z,78.20
2017-06-08T01:19:36.174Z,78.30
2017-06-08T01:22:03.054Z,78.50
2017-06-08T01:24:29.945Z,78.60
2017-06-08T01:26:56.877Z,78.60
2017-06-08T01:29:23.809Z,78.80
2017-06-08T01:31:51.533Z,78.90
2017-06-08T01:34:18.851Z,79.20
2017-06-08T01:36:45.731Z,79.20
2017-06-08T01:39:12.618Z,78.80
2017-06-08T01:41:39.541Z,78.70
2017-06-08T01:44:06.417Z,78.80
2017-06-08T01:46:33.307Z,78.70
2017-06-08T01:49:00.234Z,78.50
2017-06-08T01:51:27.121Z,78.30
2017-06-08T01:53:54.006Z,78.30
2017-06-08T01:56:20.965Z,78.40
2017-06-08T01:58:47.848Z,78.50
2017-06-08T02:01:15.129Z,78.40
2017-06-08T02:03:42.059Z,78.40
2017-06-08T02:06:08.938Z,78.40
2017-06-08T02:08:35.826Z,78.20
2017-06-08T02:11:02.745Z,78.20
2017-06-08T02:13:29.625Z,78.40
2017-06-08T02:15:56.914Z,78.20
2017-06-08T02:18:23.833Z,78.20
2017-06-08T02:20:51.118Z,78.20
2017-06-08T02:23:17.994Z,78.20
2017-06-08T02:25:44.921Z,78.00
2017-06-08T02:28:11.806Z,78.00
2017-06-08T02:30:38.699Z,78.30
2017-06-08T02:33:05.701Z,78.30
2017-06-08T02:35:32.990Z,78.10
2017-06-08T02:37:59.874Z,78.10
2017-06-08T02:40:26.790Z,78.30
2017-06-08T02:42:53.681Z,78.40
2017-06-08T02:45:20.639Z,78.20
2017-06-08T02:47:47.986Z,77.50
2017-06-08T02:50:14.872Z,77.50
2017-06-08T02:52:41.753Z,77.70
2017-06-08T02:55:08.725Z,77.80
2017-06-08T02:57:36.015Z,77.40
2017-06-08T03:00:02.894Z,77.40
2017-06-08T03:02:29.865Z,77.70
2017-06-08T03:04:56.750Z,78.00
2017-06-08T03:07:23.641Z,78.00
2017-06-08T03:09:50.570Z,77.90
2017-06-08T03:12:17.554Z,77.70
2017-06-08T03:14:44.443Z,77.90
2017-06-08T03:17:11.361Z,77.90
2017-06-08T03:19:38.246Z,78.10
2017-06-08T03:22:05.241Z,78.00
2017-06-08T03:24:32.182Z,77.80
2017-06-08T03:26:59.126Z,77.40
2017-06-08T03:29:26.074Z,77.40
2017-06-08T03:31:52.969Z,77.50
2017-06-08T03:34:19.854Z,77.40
2017-06-08T03:36:46.817Z,77.30
2017-06-08T03:39:14.165Z,77.40
2017-06-08T03:41:41.049Z,77.40
2017-06-08T03:44:08.061Z,77.30
2017-06-08T03:46:34.953Z,77.20
2017-06-08T03:49:01.846Z,77.30
2017-06-08T03:51:28.789Z,77.10
2017-06-08T03:53:55.746Z,77.50
2017-06-08T03:56:22.630Z,77.70
2017-06-08T03:58:49.733Z,77.30
2017-06-08T04:01:16.617Z,76.70
2017-06-08T04:03:43.525Z,76.50
2017-06-08T04:06:10.449Z,76.40
2017-06-08T04:08:37.329Z,76.20
2017-06-08T04:11:04.213Z,75.90
2017-06-08T04:13:31.213Z,76.30
2017-06-08T04:15:58.162Z,76.60
2017-06-08T04:18:25.111Z,76.80
2017-06-08T04:20:52.053Z,76.20
2017-06-08T04:23:19.007Z,75.90
2017-06-08T04:25:46.354Z,75.70
2017-06-08T04:28:13.297Z,75.70
2017-06-08T04:30:40.270Z,75.10
2017-06-08T04:33:07.162Z,75.20
2017-06-08T04:35:34.102Z,75.30
2017-06-08T04:38:01.086Z,75.70
2017-06-08T04:40:28.029Z,75.60
2017-06-08T04:42:54.977Z,75.30
2017-06-08T04:45:21.930Z,75.30
2017-06-08T04:47:48.877Z,74.70
2017-06-08T04:50:16.258Z,74.70
2017-06-08T04:52:43.178Z,74.70
2017-06-08T04:55:10.121Z,73.50
2017-06-08T04:57:37.071Z,73.40
2017-06-08T05:00:03.950Z,73.70
2017-06-08T05:02:30.957Z,73.20
2017-06-08T05:04:57.907Z,73.30
2017-06-08T05:07:24.800Z,73.10
2017-06-08T05:09:51.726Z,72.70
2017-06-08T05:12:18.740Z,72.60
2017-06-08T05:14:45.690Z,71.90
2017-06-08T05:17:12.569Z,71.80
2017-06-08T05:19:39.522Z,71.70
2017-06-08T05:22:06.534Z,71.80
2017-06-08T05:24:33.473Z,71.00
2017-06-08T05:27:00.428Z,71.30
2017-06-08T05:29:27.389Z,71.00
2017-06-08T05:31:54.682Z,70.90
2017-06-08T05:34:21.674Z,70.90
2017-06-08T05:36:48.601Z,70.80
2017-06-08T05:39:15.483Z,70.80
2017-06-08T05:41:42.777Z,70.60
2017-06-08T05:44:09.760Z,70.60
2017-06-08T05:46:37.126Z,70.60
2017-06-08T05:49:04.477Z,70.60
2017-06-08T05:51:31.833Z,69.70
2017-06-08T05:53:58.774Z,69.70
2017-06-08T05:56:25.701Z,69.60
2017-06-08T05:58:52.586Z,69.70
2017-06-08T06:01:19.921Z,69.80
2017-06-08T06:03:46.969Z,69.80
2017-06-08T06:06:13.922Z,69.90
2017-06-08T06:08:40.866Z,70.70
2017-06-08T06:11:07.814Z,70.60
2017-06-08T06:13:34.790Z,70.70
2017-06-08T06:16:01.678Z,70.40
2017-06-08T06:18:28.645Z,70.20
2017-06-08T06:20:55.597Z,69.80
2017-06-08T06:23:22.487Z,69.30
2017-06-08T06:25:49.402Z,69.30
2017-06-08T06:28:16.746Z,68.50
2017-06-08T06:30:44.029Z,68.40
2017-06-08T06:33:10.941Z,68.40
2017-06-08T06:35:37.985Z,67.70
2017-06-08T06:38:04.934Z,68.20
2017-06-08T06:40:31.815Z,67.80
2017-06-08T06:42:58.733Z,68.30
2017-06-08T06:45:26.018Z,66.80
2017-06-08T06:47:52.902Z,66.80
2017-06-08T06:50:19.842Z,66.20
2017-06-08T06:52:46.720Z,65.90
2017-06-08T06:55:14.069Z,65.30
2017-06-08T06:57:40.998Z,65.30
2017-06-08T07:00:07.970Z,65.40
2017-06-08T07:02:35.322Z,64.40
2017-06-08T07:05:02.267Z,64.40
2017-06-08T07:07:29.217Z,63.80
2017-06-08T07:09:56.546Z,64.80
2017-06-08T07:12:23.451Z,64.80
2017-06-08T07:14:50.365Z,64.10
2017-06-08T07:17:17.714Z,64.50
2017-06-08T07:19:44.689Z,64.50
2017-06-08T07:22:12.008Z,64.40
2017-06-08T07:24:38.966Z,64.40
2017-06-08T07:27:05.913Z,64.10
2017-06-08T07:29:32.862Z,63.80
2017-06-08T07:31:59.817Z,63.90
2017-06-08T07:34:27.158Z,64.00
2017-06-08T07:36:54.106Z,64.00
2017-06-08T07:39:21.049Z,63.50
2017-06-08T07:41:47.934Z,62.90
2017-06-08T07:44:14.941Z,63.50
2017-06-08T07:46:41.826Z,63.90
2017-06-08T07:49:08.829Z,64.00
2017-06-08T07:51:35.713Z,64.40
2017-06-08T07:54:02.597Z,65.20
2017-06-08T07:56:29.574Z,64.40
2017-06-08T07:58:56.454Z,64.60
2017-06-08T08:01:35.332Z,64.70
2017-06-08T08:04:02.684Z,64.00
2017-06-08T08:06:30.025Z,64.20
2017-06-08T08:08:56.958Z,64.20
2017-06-08T08:11:23.930Z,63.80
2017-06-08T08:13:51.274Z,63.00
2017-06-08T08:16:18.226Z,63.00
2017-06-08T08:18:45.526Z,63.40
2017-06-08T08:21:12.427Z,63.40
2017-06-08T08:23:39.349Z,63.60
2017-06-08T08:26:06.246Z,63.90
2017-06-08T08:28:33.205Z,64.90
2017-06-08T08:31:00.206Z,64.80
2017-06-08T08:33:27.089Z,64.80
2017-06-08T08:35:54.087Z,64.50
2017-06-08T08:38:21.033Z,63.60
2017-06-08T08:40:47.982Z,63.60
2017-06-08T08:43:14.927Z,63.80
2017-06-08T08:45:41.881Z,63.50
2017-06-08T08:48:08.766Z,62.80
2017-06-08T08:50:35.765Z,63.40
2017-06-08T08:53:02.714Z,62.60
2017-06-08T08:55:29.661Z,61.10
2017-06-08T08:57:56.606Z,62.40
2017-06-08T09:00:23.549Z,61.40
2017-06-08T09:02:50.504Z,61.70
2017-06-08T09:05:17.427Z,61.00
2017-06-08T09:07:44.397Z,61.40
2017-06-08T09:10:11.289Z,61.40
2017-06-08T09:12:38.226Z,61.20
2017-06-08T09:15:05.125Z,60.30
2017-06-08T09:17:32.007Z,59.30
2017-06-08T09:19:58.945Z,60.20
2017-06-08T09:22:25.827Z,61.00
2017-06-08T09:24:52.717Z,60.70
2017-06-08T09:27:19.757Z,58.90
2017-06-08T09:29:46.706Z,60.10
2017-06-08T09:32:13.601Z,59.70
2017-06-08T09:34:40.598Z,60.20
2017-06-08T09:37:07.641Z,58.70
2017-06-08T09:39:34.597Z,60.50
2017-06-08T09:42:01.482Z,60.60
2017-06-08T09:44:28.459Z,61.30
2017-06-08T09:46:55.474Z,60.40
2017-06-08T09:49:22.353Z,60.70
2017-06-08T09:51:49.238Z,60.70
2017-06-08T09:54:16.153Z,60.90
2017-06-08T09:56:43.034Z,60.20
2017-06-08T09:59:09.949Z,60.20
2017-06-08T10:01:36.837Z,59.70
2017-06-08T10:04:03.847Z,59.70
2017-06-08T10:06:30.739Z,59.30
2017-06-08T10:08:57.685Z,59.40
2017-06-08T10:11:24.618Z,58.50
2017-06-08T10:13:51.522Z,59.80
2017-06-08T10:16:18.485Z,58.50
2017-06-08T10:18:45.825Z,58.50
2017-06-08T10:21:12.826Z,58.50
2017-06-08T10:23:39.726Z,58.60
2017-06-08T10:26:06.674Z,58.60
2017-06-08T10:28:33.602Z,58.50
2017-06-08T10:31:00.570Z,58.80
2017-06-08T10:33:27.533Z,58.90
2017-06-08T10:35:54.460Z,58.10
2017-06-08T10:38:21.425Z,57.00
2017-06-08T10:40:48.416Z,57.20
2017-06-08T10:43:15.319Z,57.50
2017-06-08T10:45:42.271Z,56.60
2017-06-08T10:48:09.213Z,56.70
2017-06-08T10:50:36.569Z,57.20
2017-06-08T10:53:03.930Z,56.20
2017-06-08T10:55:31.286Z,56.50
2017-06-08T10:57:58.178Z,56.50
2017-06-08T11:00:25.070Z,56.40
2017-06-08T11:02:52.017Z,56.30
2017-06-08T11:05:18.974Z,56.00
2017-06-08T11:07:45.895Z,55.60
2017-06-08T11:10:12.781Z,56.20
2017-06-08T11:12:39.705Z,55.60
2017-06-08T11:15:06.996Z,55.20
2017-06-08T11:17:33.897Z,55.20
2017-06-08T11:20:00.831Z,55.20
2017-06-08T11:22:27.801Z,55.40
2017-06-08T11:24:55.147Z,55.40
2017-06-08T11:27:22.112Z,55.30
2017-06-08T11:29:49.446Z,55.00
2017-06-08T11:32:16.418Z,55.00
2017-06-08T11:34:43.345Z,55.30
2017-06-08T11:37:10.694Z,54.30
2017-06-08T11:39:37.647Z,54.30
2017-06-08T11:42:05.001Z,54.80
2017-06-08T11:44:31.893Z,54.80
2017-06-08T11:46:58.806Z,54.50
2017-06-08T11:49:26.145Z,54.70
2017-06-08T11:51:53.074Z,54.70
2017-06-08T11:54:19.999Z,54.90
2017-06-08T11:56:46.881Z,54.60
2017-06-08T11:59:13.830Z,55.30
2017-06-08T12:01:40.778Z,54.70
2017-06-08T12:04:08.137Z,55.10
2017-06-08T12:06:35.421Z,55.70
2017-06-08T12:09:02.351Z,55.70
2017-06-08T12:11:29.693Z,55.80
2017-06-08T12:13:56.966Z,55.70
2017-06-08T12:16:23.986Z,55.70
2017-06-08T12:18:50.938Z,55.30
2017-06-08T12:21:17.831Z,55.30
2017-06-08T12:23:44.825Z,55.50
2017-06-08T12:26:11.782Z,55.90
2017-06-08T12:28:39.130Z,55.20
2017-06-08T12:31:06.123Z,55.20
2017-06-08T12:33:33.006Z,55.60
2017-06-08T12:36:00.014Z,55.90
2017-06-08T12:38:27.016Z,56.00
2017-06-08T12:40:53.902Z,56.30
2017-06-08T12:43:20.907Z,55.90
2017-06-08T12:45:47.879Z,55.60
2017-06-08T12:48:15.162Z,55.00
2017-06-08T12:50:42.121Z,55.00
2017-06-08T12:53:09.105Z,54.80
2017-06-08T12:55:36.040Z,54.60
2017-06-08T12:58:03.015Z,54.80
2017-06-08T13:00:30.359Z,55.10
2017-06-08T13:02:57.299Z,55.10
2017-06-08T13:05:24.317Z,54.80
2017-06-08T13:07:51.294Z,55.30
2017-06-08T13:10:18.241Z,54.70
2017-06-08T13:12:45.202Z,54.90
2017-06-08T13:15:12.086Z,55.10
2017-06-08T13:17:38.977Z,55.50
2017-06-08T13:20:05.942Z,54.80
2017-06-08T13:22:32.826Z,54.70
2017-06-08T13:24:59.814Z,55.30
2017-06-08T13:27:26.767Z,55.00
2017-06-08T13:29:53.738Z,54.50
2017-06-08T13:32:20.636Z,55.10
2017-06-08T13:34:47.637Z,54.70
2017-06-08T13:37:14.522Z,54.50
2017-06-08T13:39:41.405Z,54.90
2017-06-08T13:42:08.337Z,55.00
2017-06-08T13:44:35.245Z,55.30
2017-06-08T13:47:02.277Z,54.90
2017-06-08T13:49:29.285Z,54.80
2017-06-08T13:51:56.174Z,54.60
2017-06-08T13:54:23.081Z,54.40
2017-06-08T13:56:50.431Z,54.10
2017-06-08T13:59:17.378Z,54.10
2017-06-08T14:01:44.733Z,53.50
2017-06-08T14:04:12.090Z,54.20
2017-06-08T14:06:39.441Z,54.00
2017-06-08T14:09:06.333Z,54.00
2017-06-08T14:11:33.313Z,53.80
2017-06-08T14:14:00.277Z,54.10
2017-06-08T14:16:27.167Z,54.40
2017-06-08T14:18:54.118Z,54.30
2017-06-08T14:21:21.019Z,53.90
2017-06-08T14:23:47.970Z,53.90
2017-06-08T14:26:15.130Z,54.10
2017-06-08T14:28:42.041Z,53.50
2017-06-08T14:31:08.937Z,53.70
2017-06-08T14:33:35.866Z,53.40
2017-06-08T14:36:02.803Z,53.40
2017-06-08T14:38:29.682Z,53.30
2017-06-08T14:40:56.699Z,53.40
2017-06-08T14:43:23.978Z,53.80
2017-06-08T14:45:50.861Z,53.80
2017-06-08T14:48:17.841Z,53.70
2017-06-08T14:50:45.125Z,53.30
2017-06-08T14:53:12.082Z,53.30
2017-06-08T14:55:39.081Z,53.10
2017-06-08T14:58:05.961Z,53.40
2017-06-08T15:00:32.877Z,53.40
2017-06-08T15:02:59.826Z,53.60
2017-06-08T15:05:26.770Z,53.00
2017-06-08T15:07:53.650Z,52.70
2017-06-08T15:10:20.699Z,52.90
2017-06-08T15:12:47.605Z,52.60
2017-06-08T15:15:14.561Z,52.30
2017-06-08T15:17:42.014Z,52.20
2017-06-08T15:20:08.954Z,52.20
2017-06-08T15:22:35.905Z,51.10
2017-06-08T15:25:02.833Z,50.70
2017-06-08T15:27:29.841Z,51.00
2017-06-08T15:29:56.741Z,51.30
2017-06-08T15:32:23.673Z,51.40
2017-06-08T15:34:50.642Z,51.60
2017-06-08T15:37:17.529Z,51.80
2017-06-08T15:39:44.538Z,51.70
2017-06-08T15:42:11.422Z,51.80
2017-06-08T15:44:38.301Z,51.80
2017-06-08T15:47:05.265Z,51.20
2017-06-08T15:49:32.209Z,51.20
2017-06-08T15:51:59.105Z,51.30
2017-06-08T15:54:26.102Z,51.00
2017-06-08T15:56:53.054Z,51.10
2017-06-08T15:59:20.350Z,51.10
2017-06-08T16:01:47.292Z,51.10
2017-06-08T16:04:14.185Z,51.40
2017-06-08T16:06:41.148Z,50.70
2017-06-08T16:09:08.066Z,50.60
2017-06-08T16:11:34.954Z,51.00
2017-06-08T16:14:02.288Z,50.50
2017-06-08T16:16:29.242Z,50.50
2017-06-08T16:18:56.521Z,50.50
2017-06-08T16:21:23.405Z,50.50
2017-06-08T16:23:50.382Z,50.50
2017-06-08T16:26:17.290Z,50.00
2017-06-08T16:28:44.277Z,50.30
2017-06-08T16:31:11.202Z,50.00
2017-06-08T16:33:38.169Z,49.40
2017-06-08T16:36:05.556Z,47.20
2017-06-08T16:38:32.574Z,47.20
2017-06-08T16:40:59.521Z,46.60
2017-06-08T16:43:26.406Z,46.00
2017-06-08T16:45:53.338Z,45.30
2017-06-08T16:48:20.253Z,44.80
2017-06-08T16:50:47.210Z,44.50
2017-06-08T16:53:14.573Z,43.80
2017-06-08T16:55:41.845Z,43.70
2017-06-08T16:58:08.759Z,43.70
2017-06-08T17:00:35.852Z,43.40
2017-06-08T17:03:02.742Z,43.90
2017-06-08T17:05:29.629Z,44.00
2017-06-08T17:07:56.641Z,44.20
2017-06-08T17:10:23.530Z,44.00
2017-06-08T17:12:50.457Z,44.30
2017-06-08T17:15:17.891Z,44.20
2017-06-08T17:17:44.841Z,44.20
2017-06-08T17:20:11.786Z,43.90
2017-06-08T17:22:38.743Z,43.90
2017-06-08T17:25:06.086Z,43.20
2017-06-08T17:27:33.037Z,43.20
2017-06-08T17:30:00.390Z,43.30
2017-06-08T17:32:27.342Z,43.30
2017-06-08T17:34:54.222Z,43.30
2017-06-08T17:37:21.238Z,43.60
2017-06-08T17:39:52.379Z,43.70
2017-06-08T17:42:19.326Z,43.50
2017-06-08T17:44:46.690Z,43.10
2017-06-08T17:47:13.625Z,43.10
2017-06-08T17:49:40.570Z,42.90
2017-06-08T17:52:07.522Z,42.70
2017-06-08T17:54:34.430Z,42.70
2017-06-08T17:57:01.382Z,43.10
2017-06-08T17:59:28.362Z,43.60
2017-06-08T18:01:55.717Z,45.00
2017-06-08T18:04:23.071Z,45.80
2017-06-08T18:06:50.354Z,46.20
2017-06-08T18:09:17.313Z,46.20
2017-06-08T18:11:44.322Z,46.90
2017-06-08T18:14:11.601Z,48.00
2017-06-08T18:16:38.487Z,48.10
2017-06-08T18:19:05.457Z,48.60
2017-06-08T18:21:32.410Z,48.70
2017-06-08T18:23:59.297Z,48.90
2017-06-08T18:26:26.297Z,49.20
2017-06-08T18:28:53.245Z,49.60
2017-06-08T18:31:20.134Z,49.60
2017-06-08T18:33:47.062Z,50.00
2017-06-08T18:36:13.983Z,49.50
2017-06-08T18:38:40.949Z,49.80
2017-06-08T18:41:08.312Z,50.60
2017-06-08T18:43:35.236Z,50.60
2017-06-08T18:46:02.137Z,50.70
2017-06-08T18:48:29.126Z,51.30
2017-06-08T18:50:56.009Z,51.40
2017-06-08T18:53:22.902Z,51.60
2017-06-08T18:55:49.874Z,51.60
2017-06-08T18:58:16.809Z,52.00
2017-06-08T19:00:43.763Z,52.30
2017-06-08T19:03:11.114Z,51.00
2017-06-08T19:05:38.058Z,51.00
2017-06-08T19:08:05.002Z,50.80
2017-06-08T19:10:31.933Z,50.40
2017-06-08T19:12:58.897Z,50.90
2017-06-08T19:15:25.794Z,51.00
2017-06-08T19:17:52.790Z,50.30
2017-06-08T19:20:19.738Z,50.50
2017-06-08T19:22:47.099Z,50.60
2017-06-08T19:25:14.075Z,50.60
2017-06-08T19:27:40.960Z,51.00
2017-06-08T19:30:07.929Z,50.70
2017-06-08T19:32:34.884Z,50.80
2017-06-08T19:35:01.832Z,51.50
2017-06-08T19:37:29.109Z,52.80
2017-06-08T19:39:56.040Z,52.80
2017-06-08T19:42:22.918Z,53.40
2017-06-08T19:44:49.813Z,53.80
2017-06-08T19:47:16.761Z,54.20
2017-06-08T19:49:43.710Z,54.30
2017-06-08T19:52:10.990Z,55.00
2017-06-08T19:54:38.005Z,55.00
2017-06-08T19:57:04.953Z,55.00
2017-06-08T19:59:31.842Z,57.30
2017-06-08T20:01:58.846Z,55.50
2017-06-08T20:04:25.806Z,55.70
2017-06-08T20:06:53.151Z,56.50
2017-06-08T20:09:20.206Z,56.50
2017-06-08T20:11:47.481Z,57.60
2017-06-08T20:14:14.397Z,57.60
2017-06-08T20:16:41.338Z,57.30
2017-06-08T20:19:08.221Z,56.80
2017-06-08T20:21:35.145Z,56.60
2017-06-08T20:24:02.498Z,56.50
2017-06-08T20:26:29.857Z,56.40
2017-06-08T20:28:57.162Z,56.80
2017-06-08T20:31:24.093Z,56.80
2017-06-08T20:33:50.978Z,57.10
2017-06-08T20:36:17.953Z,57.10
2017-06-08T20:38:45.309Z,57.00
2017-06-08T20:41:12.593Z,57.40
2017-06-08T20:43:39.482Z,57.40
2017-06-08T20:46:06.422Z,57.50
2017-06-08T20:48:33.393Z,57.70
2017-06-08T20:51:00.294Z,58.10
2017-06-08T20:53:27.285Z,57.20
2017-06-08T20:55:54.243Z,58.20
2017-06-08T20:58:21.132Z,57.80
2017-06-08T21:00:48.045Z,58.70
2017-06-08T21:03:14.956Z,58.20
2017-06-08T21:05:41.910Z,58.60
2017-06-08T21:08:08.842Z,58.90
2017-06-08T21:10:35.726Z,59.60
2017-06-08T21:13:02.613Z,59.40
2017-06-08T21:15:29.555Z,60.00
2017-06-08T21:17:56.433Z,60.40
2017-06-08T21:20:23.322Z,60.90
2017-06-08T21:22:50.326Z,61.20
2017-06-08T21:25:17.217Z,61.90
2017-06-08T21:27:44.097Z,62.10
2017-06-08T21:30:11.065Z,62.40
2017-06-08T21:32:37.974Z,62.80
2017-06-08T21:35:04.962Z,62.90
2017-06-08T21:37:32.299Z,63.00
2017-06-08T21:39:59.262Z,63.10
2017-06-08T21:42:26.202Z,63.00
2017-06-08T21:44:53.158Z,63.10
2017-06-08T21:47:20.058Z,63.60
2017-06-08T21:49:46.989Z,63.80
2017-06-08T21:52:13.917Z,63.70
2017-06-08T21:57:13.122Z,64.00
2017-06-08T21:59:40.407Z,64.40
2017-06-08T22:02:07.339Z,64.40
2017-06-08T22:04:34.373Z,64.20
2017-06-08T22:07:01.313Z,64.10
2017-06-08T22:09:28.657Z,64.30
2017-06-08T22:11:55.602Z,64.30
2017-06-08T22:14:22.554Z,64.50
2017-06-08T22:16:49.501Z,64.90
2017-06-08T22:19:16.442Z,64.70
2017-06-08T22:21:43.415Z,64.80
2017-06-08T22:24:10.749Z,65.30
2017-06-08T22:26:37.794Z,65.30
2017-06-08T22:29:04.681Z,65.00
2017-06-08T22:31:31.569Z,64.70
2017-06-08T22:33:58.526Z,64.80
2017-06-08T22:36:25.478Z,65.10
2017-06-08T22:38:52.433Z,65.30
2017-06-08T22:41:19.469Z,65.40
2017-06-08T22:43:46.422Z,65.70
2017-06-08T22:46:13.366Z,66.00
2017-06-08T22:48:40.318Z,66.30
2017-06-08T22:51:07.202Z,66.60
2017-06-08T22:53:34.085Z,66.60
2017-06-08T22:56:01.094Z,66.30
2017-06-08T22:58:27.993Z,66.20
2017-06-08T23:00:54.878Z,66.00
2017-06-08T23:03:21.826Z,66.30
2017-06-08T23:05:48.710Z,66.60
2017-06-08T23:08:15.677Z,66.80
2017-06-08T23:10:42.627Z,65.90
2017-06-08T23:13:09.981Z,65.50
2017-06-08T23:15:36.874Z,65.60
2017-06-08T23:18:03.803Z,65.20
2017-06-08T23:20:30.681Z,64.70
2017-06-08T23:22:57.561Z,65.30
2017-06-08T23:25:24.621Z,65.70
2017-06-08T23:27:51.901Z,65.40
2017-06-08T23:30:18.809Z,65.40
2017-06-08T23:32:45.760Z,65.40
2017-06-08T23:35:12.643Z,65.30
2017-06-08T23:37:39.645Z,65.60
2017-06-08T23:40:06.593Z,65.40
2017-06-08T23:42:33.494Z,65.40
2017-06-08T23:45:00.459Z,65.70
2017-06-08T23:47:27.354Z,65.50
2017-06-08T23:49:54.633Z,65.50
2017-06-08T23:52:21.637Z,65.50
2017-06-08T23:54:48.518Z,65.70
2017-06-08T23:57:15.430Z,66.10
2017-06-08T23:59:42.469Z,66.10
